createdAt,value
2023-02-09T00:01:20.311Z,3.60
2023-02-09T00:03:47.553Z,3.60
2023-02-09T00:06:17.314Z,3.60
2023-02-09T00:08:44.574Z,3.50
2023-02-09T00:11:43.474Z,3.50
2023-02-09T00:14:15.638Z,3.50
2023-02-09T00:16:42.693Z,3.50
2023-02-09T00:19:10.846Z,3.40
2023-02-09T00:21:38.627Z,3.40
2023-02-09T00:24:06.501Z,3.40
2023-02-09T00:26:34.045Z,3.40
2023-02-09T00:29:01.004Z,3.40
2023-02-09T00:31:28.022Z,3.30
2023-02-09T00:33:55.093Z,3.30
2023-02-09T00:36:21.981Z,3.30
2023-02-09T00:38:49.099Z,3.30
2023-02-09T00:41:16.866Z,3.30
2023-02-09T00:43:43.802Z,3.30
2023-02-09T00:46:10.742Z,3.20
2023-02-09T00:48:37.777Z,3.30
2023-02-09T00:51:04.834Z,3.20
2023-02-09T00:53:31.741Z,3.20
2023-02-09T00:56:00.030Z,3.10
2023-02-09T00:58:27.050Z,3.10
2023-02-09T01:00:54.092Z,3.10
2023-02-09T01:03:21.079Z,3.10
2023-02-09T01:05:47.943Z,3.00
2023-02-09T01:08:14.817Z,3.00
2023-02-09T01:10:41.790Z,3.00
2023-02-09T01:13:08.830Z,2.90
2023-02-09T01:15:35.818Z,2.90
2023-02-09T01:18:02.782Z,2.80
2023-02-09T01:20:29.701Z,2.70
2023-02-09T01:22:56.654Z,2.60
2023-02-09T01:25:23.631Z,2.50
2023-02-09T01:27:50.531Z,2.40
2023-02-09T01:30:18.313Z,2.30
2023-02-09T01:32:45.220Z,2.30
2023-02-09T01:35:12.191Z,2.30
2023-02-09T01:37:39.139Z,2.30
2023-02-09T01:40:07.592Z,2.30
2023-02-09T01:42:34.671Z,2.30
2023-02-09T01:45:01.532Z,2.30
2023-02-09T01:47:28.706Z,2.30
2023-02-09T01:49:55.928Z,2.40
2023-02-09T01:52:27.928Z,2.40
2023-02-09T01:55:01.216Z,2.50
2023-02-09T01:57:36.084Z,2.60
2023-02-09T02:00:10.955Z,2.60
2023-02-09T02:02:38.427Z,2.70
2023-02-09T02:05:06.756Z,2.70
2023-02-09T02:07:53.741Z,2.70
2023-02-09T02:10:21.381Z,2.70
2023-02-09T02:12:48.319Z,2.70
2023-02-09T02:15:16.212Z,2.70
2023-02-09T02:18:18.401Z,2.70
2023-02-09T02:21:16.141Z,2.80
2023-02-09T02:24:04.826Z,2.70
2023-02-09T02:27:01.557Z,2.80
2023-02-09T02:30:05.699Z,2.80
2023-02-09T02:33:01.115Z,2.80
2023-02-09T02:35:36.659Z,2.70
2023-02-09T02:38:12.615Z,2.70
2023-02-09T02:40:52.622Z,2.60
2023-02-09T02:43:23.879Z,2.50
2023-02-09T02:46:00.736Z,2.40
2023-02-09T02:48:36.389Z,2.30
2023-02-09T02:51:08.074Z,2.20
2023-02-09T02:53:38.199Z,2.20
2023-02-09T02:56:14.469Z,2.10
2023-02-09T02:58:43.782Z,2.00
2023-02-09T03:01:15.513Z,2.00
2023-02-09T03:03:45.059Z,1.90
2023-02-09T03:06:13.802Z,1.90
2023-02-09T03:08:57.773Z,1.80
2023-02-09T03:11:31.453Z,1.80
2023-02-09T03:14:13.175Z,1.80
2023-02-09T03:16:48.437Z,1.80
2023-02-09T03:19:41.195Z,1.80
2023-02-09T03:22:12.894Z,1.70
2023-02-09T03:24:54.026Z,1.70
2023-02-09T03:27:42.715Z,1.70
2023-02-09T03:30:13.512Z,1.70
2023-02-09T03:32:42.410Z,1.70
2023-02-09T03:35:12.664Z,1.70
2023-02-09T03:37:39.726Z,1.70
2023-02-09T03:40:07.388Z,1.80
2023-02-09T03:42:35.293Z,1.80
2023-02-09T03:45:02.285Z,1.80
2023-02-09T03:47:30.884Z,1.70
2023-02-09T03:49:58.448Z,1.70
2023-02-09T03:52:25.488Z,1.70
2023-02-09T03:54:52.365Z,1.70
2023-02-09T03:57:19.289Z,1.70
2023-02-09T03:59:46.229Z,1.70
2023-02-09T04:02:13.166Z,1.70
2023-02-09T04:04:40.153Z,1.70
2023-02-09T04:07:07.283Z,1.70
2023-02-09T04:09:34.489Z,1.60
2023-02-09T04:12:01.376Z,1.60
2023-02-09T04:14:28.369Z,1.60
2023-02-09T04:16:55.294Z,1.60
2023-02-09T04:19:22.261Z,1.60
2023-02-09T04:21:49.224Z,1.50
2023-02-09T04:24:16.127Z,1.50
2023-02-09T04:26:43.006Z,1.50
2023-02-09T04:29:10.056Z,1.50
2023-02-09T04:31:37.124Z,1.50
2023-02-09T04:34:04.087Z,1.50
2023-02-09T04:36:31.024Z,1.50
2023-02-09T04:38:58.018Z,1.50
2023-02-09T04:41:25.007Z,1.60
2023-02-09T04:43:51.938Z,1.60
2023-02-09T04:46:19.665Z,1.60
2023-02-09T04:48:47.636Z,1.60
2023-02-09T04:51:15.019Z,1.70
2023-02-09T04:53:42.197Z,1.70
2023-02-09T04:56:14.880Z,1.70
2023-02-09T04:59:00.448Z,1.70
2023-02-09T05:01:27.713Z,1.80
2023-02-09T05:03:54.764Z,1.80
2023-02-09T05:06:21.977Z,1.80
2023-02-09T05:08:49.078Z,1.80
2023-02-09T05:11:16.178Z,1.80
2023-02-09T05:13:43.371Z,1.80
2023-02-09T05:16:14.657Z,1.90
2023-02-09T05:18:41.616Z,1.90
2023-02-09T05:21:08.600Z,1.90
2023-02-09T05:23:35.547Z,1.80
2023-02-09T05:26:02.582Z,1.90
2023-02-09T05:28:29.709Z,1.80
2023-02-09T05:30:56.742Z,1.80
2023-02-09T05:33:25.101Z,1.80
2023-02-09T05:35:53.647Z,1.80
2023-02-09T05:38:20.536Z,1.80
2023-02-09T05:40:47.873Z,1.80
2023-02-09T05:43:15.010Z,1.80
2023-02-09T05:45:41.945Z,1.80
2023-02-09T05:48:08.901Z,1.80
2023-02-09T05:50:36.129Z,1.80
2023-02-09T05:53:03.120Z,1.80
2023-02-09T05:55:30.529Z,1.80
2023-02-09T05:57:57.466Z,1.80
2023-02-09T06:00:25.249Z,1.80
2023-02-09T06:02:52.203Z,1.80
2023-02-09T06:05:21.193Z,1.80
2023-02-09T06:07:49.260Z,1.80
2023-02-09T06:10:17.521Z,1.80
2023-02-09T06:12:44.825Z,1.80
2023-02-09T06:15:11.879Z,1.80
2023-02-09T06:17:38.828Z,1.80
2023-02-09T06:20:06.407Z,1.80
2023-02-09T06:22:33.325Z,1.80
2023-02-09T06:25:00.272Z,1.80
2023-02-09T06:27:27.305Z,1.80
2023-02-09T06:29:54.260Z,1.70
2023-02-09T06:32:21.149Z,1.70
2023-02-09T06:34:48.089Z,1.80
2023-02-09T06:37:14.993Z,1.70
2023-02-09T06:39:41.967Z,1.70
2023-02-09T06:42:09.038Z,1.70
2023-02-09T06:44:35.897Z,1.60
2023-02-09T06:47:02.850Z,1.60
2023-02-09T06:49:29.840Z,1.60
2023-02-09T06:51:56.866Z,1.60
2023-02-09T06:54:24.351Z,1.60
2023-02-09T06:56:51.341Z,1.60
2023-02-09T06:59:18.314Z,1.60
2023-02-09T07:01:45.227Z,1.60
2023-02-09T07:04:12.163Z,1.60
2023-02-09T07:06:39.062Z,1.60
2023-02-09T07:09:06.040Z,1.70
2023-02-09T07:11:32.998Z,1.70
2023-02-09T07:14:00.124Z,1.70
2023-02-09T07:16:27.151Z,1.70
2023-02-09T07:18:54.118Z,1.80
2023-02-09T07:21:21.552Z,1.80
2023-02-09T07:23:49.480Z,1.80
2023-02-09T07:26:18.517Z,1.90
2023-02-09T07:28:45.717Z,1.90
2023-02-09T07:31:14.661Z,2.10
2023-02-09T07:33:41.869Z,2.30
2023-02-09T07:36:11.349Z,2.60
2023-02-09T07:38:39.603Z,2.80
2023-02-09T07:41:08.195Z,2.90
2023-02-09T07:43:35.090Z,2.90
2023-02-09T07:46:07.856Z,3.00
2023-02-09T07:48:36.136Z,3.10
2023-02-09T07:51:03.848Z,3.10
2023-02-09T07:53:30.915Z,3.30
2023-02-09T07:55:58.137Z,3.30
2023-02-09T07:58:25.023Z,3.60
2023-02-09T08:00:52.453Z,4.00
2023-02-09T08:03:22.473Z,4.20
2023-02-09T08:06:40.711Z,4.40
2023-02-09T08:09:10.149Z,4.60
2023-02-09T08:12:02.988Z,4.90
2023-02-09T08:14:44.424Z,5.10
2023-02-09T08:17:20.647Z,5.10
2023-02-09T08:20:02.356Z,5.30
2023-02-09T08:22:34.416Z,5.30
2023-02-09T08:25:01.885Z,5.50
2023-02-09T08:27:29.561Z,5.80
2023-02-09T08:29:57.827Z,5.90
2023-02-09T08:32:24.720Z,5.90
2023-02-09T08:34:51.625Z,6.00
2023-02-09T08:37:18.573Z,6.30
2023-02-09T08:39:45.513Z,6.80
2023-02-09T08:42:12.459Z,7.20
2023-02-09T08:44:39.326Z,7.30
2023-02-09T08:47:07.395Z,7.50
2023-02-09T08:49:34.544Z,7.80
2023-02-09T08:52:01.683Z,8.00
2023-02-09T08:54:28.661Z,8.40
2023-02-09T08:56:55.623Z,8.50
2023-02-09T08:59:23.523Z,8.70
2023-02-09T09:01:50.838Z,8.80
2023-02-09T09:04:17.778Z,8.90
2023-02-09T09:06:44.667Z,8.90
2023-02-09T09:09:11.627Z,9.10
2023-02-09T09:11:38.708Z,9.40
2023-02-09T09:14:05.929Z,9.30
2023-02-09T09:16:32.910Z,9.10
2023-02-09T09:18:59.933Z,9.00
2023-02-09T09:21:26.863Z,9.00
2023-02-09T09:23:53.751Z,9.10
2023-02-09T09:26:21.353Z,9.10
2023-02-09T09:28:52.057Z,9.20
2023-02-09T09:31:19.757Z,9.40
2023-02-09T09:33:47.919Z,9.40
2023-02-09T09:36:15.042Z,9.30
2023-02-09T09:38:42.847Z,9.50
2023-02-09T09:41:32.874Z,10.00
2023-02-09T09:44:01.623Z,10.50
2023-02-09T09:46:38.829Z,10.90
2023-02-09T09:49:06.789Z,10.90
2023-02-09T09:51:42.012Z,10.70
2023-02-09T09:54:22.147Z,10.40
2023-02-09T09:56:51.119Z,10.30
2023-02-09T09:59:26.413Z,10.80
2023-02-09T10:01:55.447Z,11.10
2023-02-09T10:04:22.630Z,11.30
2023-02-09T10:07:02.633Z,11.30
2023-02-09T10:09:33.803Z,11.10
2023-02-09T10:12:19.143Z,10.70
2023-02-09T10:14:46.033Z,10.30
2023-02-09T10:17:12.906Z,10.00
2023-02-09T10:19:39.858Z,10.00
2023-02-09T10:22:13.172Z,10.10
2023-02-09T10:24:40.837Z,10.20
2023-02-09T10:27:27.860Z,10.30
2023-02-09T10:29:55.003Z,10.50
2023-02-09T10:32:51.436Z,10.60
2023-02-09T10:35:27.446Z,10.90
2023-02-09T10:38:02.591Z,11.30
2023-02-09T10:40:33.230Z,11.80
2023-02-09T10:43:07.150Z,12.10
2023-02-09T10:45:44.095Z,12.20
2023-02-09T10:48:14.172Z,12.30
2023-02-09T10:50:56.170Z,12.40
2023-02-09T10:53:33.481Z,12.60
2023-02-09T10:56:12.575Z,13.10
2023-02-09T10:58:39.818Z,13.80
2023-02-09T11:01:09.640Z,14.40
2023-02-09T11:03:37.945Z,14.90
2023-02-09T11:06:18.170Z,15.10
2023-02-09T11:09:10.926Z,15.00
2023-02-09T11:11:43.194Z,14.90
2023-02-09T11:14:20.591Z,14.60
2023-02-09T11:16:54.061Z,13.90
2023-02-09T11:19:22.726Z,13.30
2023-02-09T11:22:18.409Z,13.30
2023-02-09T11:25:04.585Z,13.50
2023-02-09T11:27:40.453Z,14.00
2023-02-09T11:30:25.723Z,14.40
2023-02-09T11:32:59.531Z,14.50
2023-02-09T11:35:40.249Z,14.40
2023-02-09T11:38:14.723Z,14.10
2023-02-09T11:40:43.368Z,13.80
2023-02-09T11:43:33.589Z,13.50
2023-02-09T11:46:06.106Z,13.20
2023-02-09T11:48:39.022Z,13.00
2023-02-09T11:51:17.758Z,13.00
2023-02-09T11:54:07.513Z,12.90
2023-02-09T11:56:42.853Z,13.10
2023-02-09T11:59:36.935Z,13.30
2023-02-09T12:02:28.174Z,13.30
2023-02-09T12:04:55.052Z,13.30
2023-02-09T12:07:50.050Z,13.30
2023-02-09T12:10:53.166Z,13.20
2023-02-09T12:13:50.202Z,12.90
2023-02-09T12:16:22.676Z,12.30
2023-02-09T12:18:50.243Z,12.10
2023-02-09T12:21:29.124Z,11.80
2023-02-09T12:23:56.108Z,11.60
2023-02-09T12:26:44.253Z,11.40
2023-02-09T12:29:38.806Z,11.10
2023-02-09T12:32:08.459Z,10.80
2023-02-09T12:34:35.416Z,10.60
2023-02-09T12:37:16.979Z,10.40
2023-02-09T12:40:07.411Z,10.30
2023-02-09T12:42:53.319Z,10.10
2023-02-09T12:45:34.246Z,10.00
2023-02-09T12:48:12.862Z,9.90
2023-02-09T12:50:43.873Z,9.80
2023-02-09T12:53:23.365Z,9.60
2023-02-09T12:56:11.427Z,9.40
2023-02-09T12:58:44.463Z,9.30
2023-02-09T13:01:14.437Z,9.20
2023-02-09T13:03:56.529Z,9.10
2023-02-09T13:06:40.807Z,9.00
2023-02-09T13:09:13.752Z,8.90
2023-02-09T13:11:51.662Z,8.80
2023-02-09T13:14:22.413Z,8.90
2023-02-09T13:17:20.285Z,8.80
2023-02-09T13:20:00.046Z,8.80
2023-02-09T13:22:32.874Z,8.90
2023-02-09T13:25:38.888Z,8.80
2023-02-09T13:28:24.009Z,8.70
2023-02-09T13:30:51.296Z,8.70
2023-02-09T13:33:23.852Z,8.60
2023-02-09T13:36:16.285Z,8.60
2023-02-09T13:38:50.215Z,8.50
2023-02-09T13:41:44.817Z,8.60
2023-02-09T13:44:26.871Z,8.60
2023-02-09T13:46:59.417Z,8.60
2023-02-09T13:49:28.583Z,8.60
2023-02-09T13:52:12.060Z,8.60
2023-02-09T13:54:40.034Z,8.50
2023-02-09T13:57:38.088Z,8.60
2023-02-09T14:00:35.814Z,8.60
2023-02-09T14:03:12.469Z,8.60
2023-02-09T14:05:55.770Z,8.60
2023-02-09T14:08:23.820Z,8.60
2023-02-09T14:11:33.182Z,8.60
2023-02-09T14:14:54.394Z,8.60
2023-02-09T14:17:34.722Z,8.50
2023-02-09T14:20:03.811Z,8.50
2023-02-09T14:22:36.862Z,8.50
2023-02-09T14:25:27.633Z,8.50
2023-02-09T14:27:56.178Z,8.50
2023-02-09T14:30:36.306Z,8.40
2023-02-09T14:33:03.914Z,8.50
2023-02-09T14:35:36.493Z,8.40
2023-02-09T14:38:03.756Z,8.40
2023-02-09T14:40:34.236Z,8.40
2023-02-09T14:43:20.005Z,8.30
2023-02-09T14:45:49.403Z,8.30
2023-02-09T14:48:24.678Z,8.30
2023-02-09T14:51:11.297Z,8.30
2023-02-09T14:53:42.553Z,8.20
2023-02-09T14:56:31.472Z,8.20
2023-02-09T14:58:58.405Z,8.20
2023-02-09T15:01:25.374Z,8.20
2023-02-09T15:03:52.308Z,8.20
2023-02-09T15:06:19.286Z,8.20
2023-02-09T15:08:46.327Z,8.20
2023-02-09T15:11:42.614Z,8.20
2023-02-09T15:14:11.276Z,8.30
2023-02-09T15:16:40.236Z,8.20
2023-02-09T15:19:13.673Z,8.20
2023-02-09T15:21:40.617Z,8.20
2023-02-09T15:24:07.527Z,8.20
2023-02-09T15:26:36.427Z,8.20
2023-02-09T15:29:11.302Z,8.20
2023-02-09T15:31:38.273Z,8.20
2023-02-09T15:34:06.543Z,8.20
2023-02-09T15:36:33.724Z,8.20
2023-02-09T15:39:00.711Z,8.20
2023-02-09T15:41:46.066Z,8.20
2023-02-09T15:44:38.976Z,8.20
2023-02-09T15:47:24.301Z,8.20
2023-02-09T15:49:51.234Z,8.20
2023-02-09T15:52:18.879Z,8.20
2023-02-09T15:54:46.078Z,8.30
2023-02-09T15:57:14.380Z,8.30
2023-02-09T15:59:42.574Z,8.30
2023-02-09T16:02:14.201Z,8.30
2023-02-09T16:04:41.088Z,8.20
2023-02-09T16:07:13.453Z,8.20
2023-02-09T16:09:43.507Z,8.20
2023-02-09T16:12:11.685Z,8.20
2023-02-09T16:14:38.877Z,8.30
2023-02-09T16:17:05.912Z,8.20
2023-02-09T16:19:32.826Z,8.20
2023-02-09T16:22:05.794Z,8.20
2023-02-09T16:24:41.991Z,8.20
2023-02-09T16:27:24.842Z,8.20
2023-02-09T16:29:51.769Z,8.20
2023-02-09T16:32:22.139Z,8.10
2023-02-09T16:34:49.859Z,8.20
2023-02-09T16:37:28.130Z,8.10
2023-02-09T16:39:56.350Z,8.20
2023-02-09T16:42:25.511Z,8.20
2023-02-09T16:44:53.311Z,8.20
2023-02-09T16:47:28.398Z,8.10
2023-02-09T16:49:59.879Z,8.10
2023-02-09T16:52:30.266Z,8.20
2023-02-09T16:54:59.991Z,8.10
2023-02-09T16:57:28.557Z,8.10
2023-02-09T16:59:55.483Z,8.10
2023-02-09T17:02:40.968Z,8.10
2023-02-09T17:05:27.105Z,8.20
2023-02-09T17:08:01.882Z,8.10
2023-02-09T17:10:32.497Z,8.10
2023-02-09T17:13:01.810Z,8.10
2023-02-09T17:15:32.311Z,8.10
2023-02-09T17:18:07.387Z,8.00
2023-02-09T17:20:40.175Z,8.00
2023-02-09T17:23:07.232Z,8.00
2023-02-09T17:25:34.204Z,7.90
2023-02-09T17:28:01.286Z,7.90
2023-02-09T17:30:28.232Z,7.80
2023-02-09T17:33:01.550Z,7.80
2023-02-09T17:35:57.954Z,7.80
2023-02-09T17:38:27.609Z,7.80
2023-02-09T17:40:56.698Z,7.80
2023-02-09T17:43:24.293Z,7.80
2023-02-09T17:45:51.819Z,7.80
2023-02-09T17:48:20.878Z,7.80
2023-02-09T17:50:49.682Z,7.80
2023-02-09T17:53:25.363Z,7.80
2023-02-09T17:55:54.176Z,7.70
2023-02-09T17:58:21.106Z,7.70
2023-02-09T18:00:48.336Z,7.70
2023-02-09T18:03:17.973Z,7.70
2023-02-09T18:05:47.617Z,7.70
2023-02-09T18:08:14.828Z,7.60
2023-02-09T18:10:43.068Z,7.60
2023-02-09T18:13:17.104Z,7.60
2023-02-09T18:15:44.932Z,7.50
2023-02-09T18:18:12.046Z,7.50
2023-02-09T18:20:38.969Z,7.40
2023-02-09T18:23:05.870Z,7.40
2023-02-09T18:25:39.304Z,7.30
2023-02-09T18:28:07.477Z,7.30
2023-02-09T18:30:37.479Z,7.20
2023-02-09T18:33:06.131Z,7.20
2023-02-09T18:35:35.732Z,7.20
2023-02-09T18:38:03.895Z,7.20
2023-02-09T18:40:33.948Z,7.10
2023-02-09T18:43:02.461Z,7.10
2023-02-09T18:45:30.658Z,7.10
2023-02-09T18:47:57.879Z,7.10
2023-02-09T18:50:28.961Z,7.10
2023-02-09T18:53:04.873Z,7.00
2023-02-09T18:55:35.232Z,7.00
2023-02-09T18:58:04.351Z,7.00
2023-02-09T19:00:32.098Z,7.00
2023-02-09T19:02:59.737Z,6.90
2023-02-09T19:05:29.596Z,6.90
2023-02-09T19:07:57.255Z,6.90
2023-02-09T19:10:25.470Z,6.90
2023-02-09T19:12:52.596Z,6.90
2023-02-09T19:15:19.854Z,6.90
2023-02-09T19:17:47.301Z,6.90
2023-02-09T19:20:19.006Z,6.80
2023-02-09T19:22:47.970Z,6.80
2023-02-09T19:25:15.478Z,6.80
2023-02-09T19:27:42.484Z,6.80
2023-02-09T19:30:14.037Z,6.70
2023-02-09T19:32:41.174Z,6.70
2023-02-09T19:35:08.798Z,6.70
2023-02-09T19:37:37.505Z,6.70
2023-02-09T19:40:07.351Z,6.60
2023-02-09T19:42:34.549Z,6.60
2023-02-09T19:45:01.500Z,6.60
2023-02-09T19:47:28.690Z,6.60
2023-02-09T19:49:56.642Z,6.60
2023-02-09T19:52:24.864Z,6.60
2023-02-09T19:54:52.440Z,6.60
2023-02-09T19:57:21.534Z,6.50
2023-02-09T19:59:48.926Z,6.50
2023-02-09T20:02:17.108Z,6.50
2023-02-09T20:04:45.976Z,6.50
2023-02-09T20:07:14.689Z,6.50
2023-02-09T20:09:42.032Z,6.40
2023-02-09T20:12:08.934Z,6.40
2023-02-09T20:14:35.962Z,6.40
2023-02-09T20:17:02.861Z,6.40
2023-02-09T20:19:30.157Z,6.40
2023-02-09T20:21:57.098Z,6.40
2023-02-09T20:24:24.131Z,6.40
2023-02-09T20:26:51.035Z,6.30
2023-02-09T20:29:19.676Z,6.30
2023-02-09T20:31:46.625Z,6.30
2023-02-09T20:34:15.498Z,6.30
2023-02-09T20:36:45.050Z,6.30
2023-02-09T20:39:15.935Z,6.30
2023-02-09T20:42:05.838Z,6.30
2023-02-09T20:44:54.264Z,6.30
2023-02-09T20:47:21.304Z,6.20
2023-02-09T20:49:49.261Z,6.20
2023-02-09T20:52:16.439Z,6.20
2023-02-09T20:54:43.406Z,6.20
2023-02-09T20:57:10.312Z,6.20
2023-02-09T20:59:37.263Z,6.20
2023-02-09T21:02:04.277Z,6.20
2023-02-09T21:04:31.397Z,6.20
2023-02-09T21:07:00.400Z,6.10
2023-02-09T21:09:28.386Z,6.10
2023-02-09T21:11:56.351Z,6.10
2023-02-09T21:14:32.611Z,6.10
2023-02-09T21:17:07.779Z,6.00
2023-02-09T21:19:34.734Z,6.00
2023-02-09T21:22:01.805Z,6.00
2023-02-09T21:24:28.854Z,6.00
2023-02-09T21:26:55.792Z,6.00
2023-02-09T21:29:22.852Z,6.00
2023-02-09T21:31:51.364Z,5.90
2023-02-09T21:34:18.407Z,5.90
2023-02-09T21:36:45.302Z,5.90
2023-02-09T21:39:13.212Z,5.90
2023-02-09T21:41:58.732Z,5.90
2023-02-09T21:44:26.778Z,5.90
2023-02-09T21:46:54.555Z,5.90
2023-02-09T21:49:21.845Z,5.90
2023-02-09T21:51:48.944Z,5.90
2023-02-09T21:54:17.403Z,5.90
2023-02-09T21:56:47.420Z,5.90
2023-02-09T21:59:14.384Z,5.80
2023-02-09T22:01:42.591Z,5.70
2023-02-09T22:04:09.995Z,5.60
2023-02-09T22:06:37.052Z,5.60
2023-02-09T22:09:06.304Z,5.50
2023-02-09T22:11:33.733Z,5.40
2023-02-09T22:14:00.858Z,5.40
2023-02-09T22:16:28.053Z,5.30
2023-02-09T22:18:54.959Z,5.30
2023-02-09T22:21:22.033Z,5.30
2023-02-09T22:23:53.125Z,5.30
2023-02-09T22:26:20.393Z,5.20
2023-02-09T22:28:47.365Z,5.20
2023-02-09T22:31:18.317Z,5.20
2023-02-09T22:33:45.582Z,5.20
2023-02-09T22:36:16.078Z,5.10
2023-02-09T22:38:44.833Z,5.10
2023-02-09T22:41:23.915Z,5.00
2023-02-09T22:43:54.846Z,4.90
2023-02-09T22:46:24.230Z,4.80
2023-02-09T22:48:56.259Z,4.80
2023-02-09T22:51:24.587Z,4.80
2023-02-09T22:53:51.675Z,4.80
2023-02-09T22:56:18.637Z,4.80
2023-02-09T22:58:45.571Z,4.70
2023-02-09T23:01:13.615Z,4.70
2023-02-09T23:03:41.393Z,4.60
2023-02-09T23:06:12.846Z,4.50
2023-02-09T23:08:39.742Z,4.40
2023-02-09T23:11:10.100Z,4.30
2023-02-09T23:13:38.156Z,4.20
2023-02-09T23:16:13.404Z,4.20
2023-02-09T23:18:45.087Z,4.10
2023-02-09T23:21:12.682Z,4.00
2023-02-09T23:23:39.734Z,4.00
2023-02-09T23:26:06.812Z,3.90
2023-02-09T23:28:33.832Z,3.90
2023-02-09T23:31:09.308Z,3.80
2023-02-09T23:33:37.636Z,3.70
2023-02-09T23:36:10.136Z,3.70
2023-02-09T23:38:37.467Z,3.70
2023-02-09T23:41:08.851Z,3.60
2023-02-09T23:43:36.642Z,3.60
2023-02-09T23:46:09.019Z,3.60
2023-02-09T23:48:36.520Z,3.50
2023-02-09T23:51:08.707Z,3.50
2023-02-09T23:53:35.853Z,3.40
2023-02-09T23:56:06.535Z,3.40
2023-02-09T23:58:38.339Z,3.40
